Time;durP1;ratioP1;P1;durP2;ratioP2;P2;SDS_P1;SDS_P2;PMS_P1;PMS_P2;Temp;Humidity;BMP_temperature;BMP_pressure;BME280_temperature;BME280_humidity;BME280_pressure;Samples;Min_cycle;Max_cycle;Signal;HPM_P1;HPM_P2
2023/09/06 00:01:25;;;;;;;5.10;4.40;;;18.90;99.90;;;;;;5015180;28;20045;-85
2023/09/06 00:03:50;;;;;;;5.20;4.70;;;18.90;99.90;;;;;;5031644;28;20045;-85
2023/09/06 00:06:16;;;;;;;4.75;4.35;;;18.80;99.90;;;;;;5015351;28;20034;-85
2023/09/06 00:08:42;;;;;;;4.72;4.18;;;18.80;99.90;;;;;;4993849;28;20496;-85
2023/09/06 00:11:08;;;;;;;5.00;4.50;;;18.80;99.90;;;;;;4995633;28;20124;-85
2023/09/06 00:13:35;;;;;;;5.47;4.55;;;18.90;99.90;;;;;;5006109;28;20045;-85
2023/09/06 00:16:04;;;;;;;6.68;5.22;;;18.80;99.90;;;;;;5015406;28;20401;-85
2023/09/06 00:18:30;;;;;;;6.20;4.45;;;18.80;99.90;;;;;;5008409;28;20500;-85
2023/09/06 00:20:57;;;;;;;6.75;4.85;;;18.80;99.90;;;;;;5029744;28;20125;-85
2023/09/06 00:23:25;;;;;;;7.05;5.05;;;18.70;99.90;;;;;;5029098;28;20041;-85
2023/09/06 00:25:52;;;;;;;5.05;4.65;;;18.70;99.90;;;;;;5023932;28;20469;-85
2023/09/06 00:28:19;;;;;;;9.23;5.93;;;18.70;99.90;;;;;;5014338;28;20064;-85
2023/09/06 00:30:45;;;;;;;5.68;5.05;;;18.70;99.90;;;;;;5031078;28;20049;-85
2023/09/06 00:33:11;;;;;;;6.32;5.68;;;18.70;99.90;;;;;;5030884;28;20048;-85
2023/09/06 00:35:40;;;;;;;5.07;4.60;;;18.60;99.90;;;;;;5015029;28;20045;-85
2023/09/06 00:38:06;;;;;;;5.55;5.00;;;18.60;99.90;;;;;;5030734;28;20033;-84
2023/09/06 00:40:36;;;;;;;5.43;4.93;;;18.60;99.90;;;;;;5014670;28;20053;-85
2023/09/06 00:43:03;;;;;;;6.45;5.22;;;18.50;99.90;;;;;;5005763;28;20037;-85
2023/09/06 00:45:37;;;;;;;8.10;5.57;;;18.50;99.90;;;;;;5012521;28;20535;-85
2023/09/06 00:48:05;;;;;;;7.57;6.25;;;18.50;99.90;;;;;;5003550;28;20080;-84
2023/09/06 00:50:33;;;;;;;6.38;5.30;;;18.50;99.90;;;;;;5011789;28;20037;-85
2023/09/06 00:52:59;;;;;;;6.10;5.18;;;18.40;99.90;;;;;;5029608;28;20041;-85
2023/09/06 00:55:25;;;;;;;5.90;5.30;;;18.40;99.90;;;;;;5012706;28;20108;-85
2023/09/06 00:57:52;;;;;;;5.65;5.13;;;18.40;99.90;;;;;;5018744;28;20078;-86
2023/09/06 01:00:19;;;;;;;5.68;5.07;;;18.40;99.90;;;;;;5009219;28;20076;-85
2023/09/06 01:02:47;;;;;;;6.03;5.45;;;18.30;99.90;;;;;;5007135;28;20049;-85
2023/09/06 01:05:14;;;;;;;6.50;5.10;;;18.30;99.90;;;;;;5006814;28;20038;-85
2023/09/06 01:07:44;;;;;;;6.53;5.75;;;18.30;99.90;;;;;;5004636;28;20134;-85
2023/09/06 01:10:09;;;;;;;6.70;5.80;;;18.30;99.90;;;;;;5013840;28;20049;-85
2023/09/06 01:12:35;;;;;;;7.15;6.38;;;18.20;99.90;;;;;;4997699;28;20400;-85
2023/09/06 01:15:04;;;;;;;6.60;5.90;;;18.20;99.90;;;;;;5030291;28;20041;-85
2023/09/06 01:17:34;;;;;;;7.40;5.53;;;18.30;99.90;;;;;;5014321;28;20516;-85
2023/09/06 01:20:38;;;;;;;9.18;6.82;;;18.30;99.90;;;;;;5030460;28;20041;-85
2023/09/06 01:23:34;;;;;;;6.88;6.28;;;18.30;99.90;;;;;;5019577;28;20429;-85
2023/09/06 01:26:01;;;;;;;6.60;5.65;;;18.20;99.90;;;;;;5026932;28;20045;-85
2023/09/06 01:28:27;;;;;;;7.38;6.28;;;18.20;99.90;;;;;;5027712;28;20069;-84
2023/09/06 01:30:59;;;;;;;8.57;6.75;;;18.20;99.90;;;;;;5013773;28;20034;-84
2023/09/06 01:33:27;;;;;;;6.28;5.78;;;18.20;99.90;;;;;;5013576;28;20037;-85
2023/09/06 01:35:53;;;;;;;6.93;5.85;;;18.20;99.90;;;;;;5013233;28;20044;-84
2023/09/06 01:38:19;;;;;;;8.43;6.35;;;18.20;99.90;;;;;;5012301;28;20131;-84
2023/09/06 01:40:45;;;;;;;7.22;6.53;;;18.20;99.90;;;;;;5012302;28;20084;-85
2023/09/06 01:43:11;;;;;;;7.07;6.32;;;18.10;99.90;;;;;;4994829;28;20037;-84
2023/09/06 01:45:38;;;;;;;6.97;6.28;;;18.10;99.90;;;;;;4990810;28;20123;-85
2023/09/06 01:48:04;;;;;;;6.55;5.95;;;18.10;99.90;;;;;;5028109;28;20041;-85
2023/09/06 01:50:30;;;;;;;6.70;6.10;;;18.00;99.90;;;;;;5011205;28;20067;-85
2023/09/06 01:52:57;;;;;;;10.02;6.55;;;18.00;99.90;;;;;;5025332;28;20116;-85
2023/09/06 01:55:22;;;;;;;7.85;6.32;;;17.90;99.90;;;;;;4995764;28;20087;-85
2023/09/06 01:57:48;;;;;;;7.05;6.35;;;17.90;99.90;;;;;;5023757;28;20041;-84
2023/09/06 02:00:27;;;;;;;7.55;6.80;;;17.90;99.90;;;;;;5013083;28;20045;-85
2023/09/06 02:02:53;;;;;;;6.63;6.03;;;17.90;99.90;;;;;;5012771;28;20033;-84
2023/09/06 02:05:19;;;;;;;7.30;6.63;;;17.90;99.90;;;;;;5011303;28;20042;-84
2023/09/06 02:07:45;;;;;;;7.10;6.07;;;17.90;99.90;;;;;;4994288;28;20038;-85
2023/09/06 02:10:11;;;;;;;6.60;5.90;;;17.90;99.90;;;;;;5006122;28;20041;-85
2023/09/06 02:12:38;;;;;;;10.13;7.20;;;17.90;99.90;;;;;;4991890;28;20124;-85
2023/09/06 02:15:07;;;;;;;7.35;6.65;;;17.90;99.90;;;;;;4997149;28;20042;-85
2023/09/06 02:17:34;;;;;;;6.78;6.07;;;17.80;99.90;;;;;;5026050;28;20537;-85
2023/09/06 02:20:12;;;;;;;6.47;5.25;;;17.80;99.90;;;;;;5029092;28;20161;-84
2023/09/06 02:22:40;;;;;;;7.38;6.25;;;17.70;99.90;;;;;;4995434;28;20033;-84
2023/09/06 02:25:10;;;;;;;6.53;5.93;;;17.70;99.90;;;;;;4977483;28;20379;-84
2023/09/06 02:27:37;;;;;;;6.13;5.43;;;17.60;99.90;;;;;;5013334;28;20393;-85
2023/09/06 02:30:06;;;;;;;7.97;6.55;;;17.70;99.90;;;;;;5013456;28;20079;-84
2023/09/06 02:32:33;;;;;;;5.68;4.97;;;17.60;99.90;;;;;;5030450;28;20059;-84
2023/09/06 02:34:59;;;;;;;4.00;3.70;;;17.60;99.90;;;;;;5017008;28;20042;-84
2023/09/06 02:37:24;;;;;;;6.72;5.30;;;17.50;99.90;;;;;;5014695;28;20037;-85
2023/09/06 02:39:52;;;;;;;6.25;5.30;;;17.50;99.90;;;;;;5016288;28;20588;-85
2023/09/06 02:42:19;;;;;;;7.07;6.38;;;17.40;99.90;;;;;;5014559;28;20116;-85
2023/09/06 02:44:45;;;;;;;9.25;6.82;;;17.40;99.90;;;;;;5012381;28;20100;-85
2023/09/06 02:47:11;;;;;;;6.63;6.03;;;17.30;99.90;;;;;;4998881;28;20037;-85
2023/09/06 02:49:43;;;;;;;7.43;6.38;;;17.30;99.90;;;;;;5027203;28;20096;-84
2023/09/06 02:52:30;;;;;;;10.25;7.13;;;17.30;99.90;;;;;;5015886;28;20481;-85
2023/09/06 02:55:03;;;;;;;7.10;6.40;;;17.20;99.90;;;;;;5011823;28;20601;-85
2023/09/06 02:57:30;;;;;;;7.13;6.00;;;17.20;99.90;;;;;;5000935;28;20392;-85
2023/09/06 02:59:56;;;;;;;6.60;5.90;;;17.20;99.90;;;;;;5016341;28;20136;-85
2023/09/06 03:02:22;;;;;;;8.35;6.43;;;17.10;99.90;;;;;;5032342;28;20083;-85
2023/09/06 03:04:55;;;;;;;8.15;6.32;;;17.20;99.90;;;;;;4999743;28;20053;-85
2023/09/06 03:07:21;;;;;;;7.47;5.85;;;17.20;99.90;;;;;;5032372;28;20431;-85
2023/09/06 03:09:49;;;;;;;6.70;6.10;;;17.20;99.90;;;;;;5008633;28;20366;-85
2023/09/06 03:12:16;;;;;;;6.72;4.25;;;17.20;99.90;;;;;;5015919;28;20662;-85
2023/09/06 03:14:44;;;;;;;5.30;4.18;;;17.20;99.90;;;;;;5016100;28;20100;-84
2023/09/06 03:17:14;;;;;;;5.05;4.40;;;17.20;99.90;;;;;;5002452;28;20053;-84
2023/09/06 03:19:44;;;;;;;5.45;4.95;;;17.20;99.90;;;;;;5031723;28;20037;-85
2023/09/06 03:22:15;;;;;;;5.85;5.35;;;17.20;99.90;;;;;;5016781;28;20033;-85
2023/09/06 03:24:41;;;;;;;6.45;5.50;;;17.20;99.90;;;;;;5009675;28;20139;-85
2023/09/06 03:27:15;;;;;;;5.75;5.13;;;17.20;99.90;;;;;;5013411;28;20473;-84
2023/09/06 03:29:43;;;;;;;5.47;4.97;;;17.20;99.90;;;;;;5013643;28;20045;-84
2023/09/06 03:32:09;;;;;;;8.90;7.18;;;17.10;99.90;;;;;;5031777;28;20052;-84
2023/09/06 03:34:36;;;;;;;6.40;5.80;;;17.10;99.90;;;;;;5015402;28;20053;-84
2023/09/06 03:37:05;;;;;;;6.45;5.75;;;17.10;99.90;;;;;;5032945;28;20389;-84
2023/09/06 03:39:40;;;;;;;5.82;5.13;;;17.10;99.90;;;;;;5016091;28;20040;-84
2023/09/06 03:42:08;;;;;;;5.97;5.47;;;17.00;99.90;;;;;;5009966;28;20432;-85
2023/09/06 03:44:38;;;;;;;5.72;5.22;;;17.00;99.90;;;;;;5015377;28;20053;-85
2023/09/06 03:47:13;;;;;;;6.47;5.88;;;17.00;99.90;;;;;;5008036;28;20386;-84
2023/09/06 03:49:40;;;;;;;9.05;7.88;;;16.90;99.90;;;;;;5032606;28;20099;-85
2023/09/06 03:52:07;;;;;;;7.72;6.85;;;16.90;99.90;;;;;;5032076;28;20037;-84
2023/09/06 03:54:34;;;;;;;7.88;6.65;;;16.80;99.90;;;;;;5013120;28;20136;-85
2023/09/06 03:57:12;;;;;;;8.13;6.95;;;16.80;99.90;;;;;;5032278;28;20401;-85
2023/09/06 03:59:40;;;;;;;6.78;6.13;;;16.80;99.90;;;;;;5016154;28;20049;-84
2023/09/06 04:02:09;;;;;;;8.55;7.35;;;16.80;99.90;;;;;;5015585;28;20068;-85
2023/09/06 04:04:35;;;;;;;7.50;6.53;;;16.80;99.90;;;;;;5031825;28;20533;-84
2023/09/06 04:07:02;;;;;;;9.82;7.78;;;16.70;99.90;;;;;;5029538;28;20108;-84
2023/09/06 04:09:31;;;;;;;7.95;7.13;;;16.80;99.90;;;;;;4998911;28;20041;-85
2023/09/06 04:11:59;;;;;;;10.32;7.95;;;16.80;99.90;;;;;;4991869;28;20081;-86
2023/09/06 04:14:25;;;;;;;7.40;6.57;;;16.90;99.90;;;;;;5010351;28;20058;-85
2023/09/06 04:16:50;;;;;;;9.20;7.80;;;16.90;99.90;;;;;;5014823;28;20114;-84
2023/09/06 04:19:16;;;;;;;8.93;8.00;;;17.00;99.90;;;;;;4982414;28;20485;-85
2023/09/06 04:21:43;;;;;;;8.15;7.35;;;17.00;99.90;;;;;;4998662;28;20510;-85
2023/09/06 04:24:09;;;;;;;9.82;7.57;;;17.00;99.90;;;;;;5014451;28;20436;-85
2023/09/06 04:26:35;;;;;;;9.27;8.10;;;17.10;99.90;;;;;;5014736;28;20099;-85
2023/09/06 04:29:04;;;;;;;6.63;6.03;;;17.10;99.90;;;;;;5029586;28;20060;-85
2023/09/06 04:31:30;;;;;;;8.85;7.40;;;17.10;99.90;;;;;;5010289;28;20041;-84
2023/09/06 04:34:01;;;;;;;7.47;6.78;;;17.10;99.90;;;;;;5028862;28;20060;-85
2023/09/06 04:36:26;;;;;;;9.17;7.63;;;17.10;99.90;;;;;;5008459;28;20128;-85
2023/09/06 04:38:53;;;;;;;9.32;7.93;;;17.10;99.90;;;;;;4998765;28;20548;-84
2023/09/06 04:41:18;;;;;;;9.70;7.53;;;17.20;99.90;;;;;;5031192;28;20037;-85
2023/09/06 04:43:45;;;;;;;7.78;7.07;;;17.10;99.90;;;;;;5030523;28;20052;-84
2023/09/06 04:46:10;;;;;;;9.00;7.05;;;17.10;99.90;;;;;;5014401;28;20443;-84
2023/09/06 04:48:36;;;;;;;8.80;7.97;;;17.00;99.90;;;;;;4998027;28;20124;-85
2023/09/06 04:51:02;;;;;;;8.02;7.22;;;17.00;99.90;;;;;;4997637;28;21631;-85
2023/09/06 04:53:28;;;;;;;9.00;7.80;;;17.00;99.90;;;;;;5030325;28;20042;-85
2023/09/06 04:55:54;;;;;;;9.93;7.90;;;17.00;99.90;;;;;;5013714;28;20048;-85
2023/09/06 04:58:20;;;;;;;8.02;7.22;;;17.00;99.90;;;;;;5014857;28;20432;-85
2023/09/06 05:00:50;;;;;;;8.63;7.72;;;16.90;99.90;;;;;;5020203;28;20048;-85
2023/09/06 05:03:19;;;;;;;9.68;7.57;;;16.90;99.90;;;;;;5001957;28;20120;-84
2023/09/06 05:05:46;;;;;;;9.95;8.35;;;16.90;99.90;;;;;;5006181;28;20126;-84
2023/09/06 05:08:12;;;;;;;9.35;8.35;;;16.90;99.90;;;;;;5013088;28;20545;-85
2023/09/06 05:10:39;;;;;;;8.77;6.70;;;16.90;99.90;;;;;;5014284;28;20112;-85
2023/09/06 05:13:07;;;;;;;9.13;8.30;;;17.00;99.90;;;;;;4998011;28;20054;-85
2023/09/06 05:15:37;;;;;;;10.57;7.45;;;17.00;99.90;;;;;;5030533;28;20041;-85
2023/09/06 05:18:05;;;;;;;7.72;7.00;;;17.10;99.90;;;;;;5013999;28;20034;-85
2023/09/06 05:20:35;;;;;;;10.98;7.80;;;17.10;99.90;;;;;;5014398;28;20041;-85
2023/09/06 05:23:09;;;;;;;8.10;7.40;;;17.10;99.90;;;;;;5014104;28;20489;-85
2023/09/06 05:25:36;;;;;;;7.93;7.13;;;17.10;99.90;;;;;;5020424;28;20183;-85
2023/09/06 05:28:08;;;;;;;8.15;7.45;;;17.00;99.90;;;;;;5009553;28;20045;-85
2023/09/06 05:30:38;;;;;;;9.40;8.40;;;17.10;99.90;;;;;;5014291;28;20060;-85
2023/09/06 05:33:04;;;;;;;8.88;7.90;;;17.10;99.90;;;;;;5030363;28;20099;-85
2023/09/06 05:35:30;;;;;;;9.27;8.38;;;17.20;99.90;;;;;;5013682;28;20080;-86
2023/09/06 05:37:55;;;;;;;8.85;7.95;;;17.20;99.90;;;;;;5013673;28;20045;-86
2023/09/06 05:40:22;;;;;;;8.73;7.82;;;17.20;99.90;;;;;;4997301;28;20037;-85
2023/09/06 05:42:52;;;;;;;9.65;7.70;;;17.20;99.90;;;;;;5013606;28;20905;-85
2023/09/06 05:45:19;;;;;;;9.35;8.02;;;17.30;99.90;;;;;;5030316;28;20068;-85
2023/09/06 05:47:45;;;;;;;9.30;8.30;;;17.30;99.90;;;;;;4995508;28;20045;-85
2023/09/06 05:50:11;;;;;;;9.18;8.27;;;17.40;99.90;;;;;;4999631;28;20034;-85
2023/09/06 05:52:38;;;;;;;10.02;8.18;;;17.40;99.90;;;;;;5023034;28;20037;-85
2023/09/06 05:55:04;;;;;;;10.02;8.40;;;17.40;99.90;;;;;;5012217;28;20839;-84
2023/09/06 05:57:31;;;;;;;11.93;8.95;;;17.40;99.90;;;;;;5001375;28;20042;-84
2023/09/06 05:59:57;;;;;;;8.73;7.82;;;17.40;99.90;;;;;;5009483;28;20030;-84
2023/09/06 06:02:24;;;;;;;9.40;8.50;;;17.40;99.90;;;;;;5011237;28;20433;-84
2023/09/06 06:04:50;;;;;;;9.38;8.40;;;17.50;99.90;;;;;;5028565;28;20049;-84
2023/09/06 06:07:17;;;;;;;10.68;9.57;;;17.50;99.90;;;;;;5014341;28;20474;-84
2023/09/06 06:09:43;;;;;;;9.85;8.57;;;17.50;99.90;;;;;;5032903;28;20393;-84
2023/09/06 06:12:13;;;;;;;9.80;8.73;;;17.50;99.90;;;;;;5017189;28;20072;-85
2023/09/06 06:14:41;;;;;;;8.70;7.93;;;17.50;99.90;;;;;;5017003;28;20048;-85
2023/09/06 06:17:09;;;;;;;9.13;8.10;;;17.60;99.90;;;;;;5016350;28;20038;-85
2023/09/06 06:19:35;;;;;;;9.50;8.55;;;17.60;99.90;;;;;;5016991;28;20056;-85
2023/09/06 06:22:02;;;;;;;9.98;8.35;;;17.70;99.90;;;;;;5014117;28;20029;-84
2023/09/06 06:24:29;;;;;;;9.55;8.32;;;17.70;99.90;;;;;;5015021;28;20064;-84
2023/09/06 06:26:55;;;;;;;8.98;8.07;;;17.80;99.90;;;;;;5000581;28;20144;-86
2023/09/06 06:29:22;;;;;;;9.63;8.45;;;17.90;99.90;;;;;;5000530;28;20037;-84
2023/09/06 06:31:48;;;;;;;9.73;8.77;;;18.00;99.90;;;;;;5016519;28;20116;-85
2023/09/06 06:34:14;;;;;;;9.23;8.32;;;18.00;99.90;;;;;;5023166;28;20148;-85
2023/09/06 06:36:41;;;;;;;9.30;8.35;;;18.10;99.90;;;;;;5016427;28;20099;-85
2023/09/06 06:39:07;;;;;;;9.73;8.45;;;18.20;99.90;;;;;;5032065;28;20522;-85
2023/09/06 06:41:33;;;;;;;8.88;7.97;;;18.30;99.90;;;;;;5032864;28;20442;-83
2023/09/06 06:43:58;;;;;;;10.38;9.38;;;18.30;99.90;;;;;;5016604;28;20132;-83
2023/09/06 06:46:32;;;;;;;9.43;8.52;;;18.40;99.90;;;;;;5015270;28;20077;-83
2023/09/06 06:48:59;;;;;;;9.93;8.45;;;18.50;99.90;;;;;;5027575;28;20083;-83
2023/09/06 06:51:26;;;;;;;9.68;8.20;;;18.50;99.90;;;;;;5011904;28;20077;-83
2023/09/06 06:53:52;;;;;;;9.25;8.35;;;18.60;99.90;;;;;;5015378;28;20041;-83
2023/09/06 06:56:21;;;;;;;9.43;8.25;;;18.70;99.90;;;;;;5031477;28;20710;-84
2023/09/06 06:58:50;;;;;;;8.50;7.53;;;18.80;99.90;;;;;;5009601;28;20069;-84
2023/09/06 07:01:16;;;;;;;8.45;7.45;;;18.90;99.90;;;;;;5006113;28;20053;-83
2023/09/06 07:03:42;;;;;;;8.55;7.70;;;18.90;99.90;;;;;;4999515;28;20045;-83
2023/09/06 07:06:08;;;;;;;9.43;7.68;;;19.10;99.90;;;;;;5033568;28;20037;-84
2023/09/06 07:08:38;;;;;;;9.23;7.47;;;19.10;99.90;;;;;;5016737;28;20033;-83
2023/09/06 07:11:04;;;;;;;8.05;6.82;;;19.20;99.90;;;;;;5001016;28;20153;-82
2023/09/06 07:13:31;;;;;;;8.20;6.78;;;19.30;99.90;;;;;;5022561;28;20112;-83
2023/09/06 07:16:04;;;;;;;7.65;6.68;;;19.40;99.90;;;;;;5017131;28;20064;-83
2023/09/06 07:18:30;;;;;;;7.25;6.22;;;19.50;99.90;;;;;;5032420;28;20045;-83
2023/09/06 07:20:56;;;;;;;6.95;6.25;;;19.60;99.90;;;;;;5015897;28;20048;-83
2023/09/06 07:23:22;;;;;;;6.75;6.05;;;19.70;99.90;;;;;;5014108;28;20045;-83
2023/09/06 07:25:48;;;;;;;6.93;5.95;;;19.80;99.90;;;;;;5015217;28;20048;-82
2023/09/06 07:28:14;;;;;;;7.63;6.15;;;19.90;99.90;;;;;;5003781;28;20402;-83
2023/09/06 07:30:41;;;;;;;6.10;5.50;;;20.00;99.90;;;;;;5009547;28;20747;-83
2023/09/06 07:33:07;;;;;;;5.93;5.40;;;20.10;99.90;;;;;;5028241;28;20103;-83
2023/09/06 07:35:33;;;;;;;7.15;5.45;;;20.20;99.90;;;;;;5015673;28;20107;-83
2023/09/06 07:38:03;;;;;;;6.90;5.30;;;20.30;99.90;;;;;;5014346;28;20382;-83
2023/09/06 07:40:29;;;;;;;6.20;5.22;;;20.40;99.90;;;;;;5007482;28;20037;-83
2023/09/06 07:42:55;;;;;;;7.20;4.95;;;20.50;99.90;;;;;;5027013;28;20048;-83
2023/09/06 07:45:21;;;;;;;7.22;3.92;;;20.70;99.90;;;;;;5017180;28;20045;-82
2023/09/06 07:47:46;;;;;;;4.63;4.05;;;20.80;99.90;;;;;;5006511;28;20045;-83
2023/09/06 07:50:12;;;;;;;4.30;3.58;;;20.90;99.90;;;;;;4972939;28;20042;-85
2023/09/06 07:52:38;;;;;;;4.90;3.80;;;21.10;99.90;;;;;;4990202;28;20397;-83
2023/09/06 07:55:05;;;;;;;3.63;3.30;;;21.30;99.90;;;;;;5002280;28;20037;-83
2023/09/06 07:57:30;;;;;;;4.13;3.38;;;21.50;99.90;;;;;;5005597;28;20030;-83
2023/09/06 07:59:56;;;;;;;3.92;3.00;;;21.60;99.90;;;;;;4999521;28;20632;-84
2023/09/06 08:02:22;;;;;;;3.50;2.70;;;21.80;99.90;;;;;;4986074;28;20115;-83
2023/09/06 08:04:49;;;;;;;3.75;3.45;;;21.90;99.90;;;;;;5004783;28;20076;-83
2023/09/06 08:07:14;;;;;;;3.97;2.92;;;22.00;99.90;;;;;;5000042;28;20053;-84
2023/09/06 08:09:40;;;;;;;3.92;3.15;;;22.10;99.90;;;;;;5001667;28;20358;-83
2023/09/06 08:12:06;;;;;;;4.57;2.97;;;22.20;99.90;;;;;;5001516;28;20558;-82
2023/09/06 08:14:32;;;;;;;3.13;2.78;;;22.40;99.90;;;;;;5000834;28;20048;-83
2023/09/06 08:16:57;;;;;;;3.17;2.92;;;22.50;99.90;;;;;;4998281;28;20524;-84
2023/09/06 08:19:23;;;;;;;3.55;3.25;;;22.60;99.90;;;;;;4984881;28;20124;-83
2023/09/06 08:21:49;;;;;;;4.30;3.72;;;22.70;99.90;;;;;;4985788;28;20051;-84
2023/09/06 08:24:17;;;;;;;5.63;3.35;;;22.80;99.90;;;;;;4985700;28;20160;-85
2023/09/06 08:26:43;;;;;;;5.32;3.70;;;23.00;99.90;;;;;;5017808;28;20057;-84
2023/09/06 08:29:11;;;;;;;5.20;3.50;;;23.10;99.90;;;;;;5000618;28;20049;-85
2023/09/06 08:31:37;;;;;;;4.10;3.15;;;23.20;99.90;;;;;;5001311;28;20045;-83
2023/09/06 08:34:02;;;;;;;5.13;3.38;;;23.30;99.90;;;;;;5017562;28;20099;-84
2023/09/06 08:36:28;;;;;;;3.42;3.13;;;23.40;99.90;;;;;;4985418;28;20045;-84
2023/09/06 08:38:54;;;;;;;4.70;3.55;;;23.50;99.90;;;;;;4970477;28;20041;-84
2023/09/06 08:41:21;;;;;;;6.03;3.55;;;23.60;99.90;;;;;;5004264;28;20117;-85
2023/09/06 08:43:48;;;;;;;3.63;3.30;;;23.70;99.90;;;;;;5018569;28;20049;-84
2023/09/06 08:46:18;;;;;;;4.30;3.40;;;23.80;99.90;;;;;;5020057;28;20049;-85
2023/09/06 08:48:45;;;;;;;4.63;3.47;;;23.90;99.90;;;;;;5004245;28;21108;-84
2023/09/06 08:51:11;;;;;;;4.75;3.03;;;24.00;99.90;;;;;;4998741;28;20068;-84
2023/09/06 08:53:43;;;;;;;4.50;3.13;;;24.10;99.90;;;;;;4981917;28;20636;-85
2023/09/06 08:56:10;;;;;;;3.47;2.60;;;24.20;99.90;;;;;;5018900;28;20085;-85
2023/09/06 08:58:36;;;;;;;4.50;2.60;;;24.30;99.90;;;;;;5017590;28;20045;-84
2023/09/06 09:01:04;;;;;;;2.90;2.70;;;24.40;99.90;;;;;;4998267;28;20048;-84
2023/09/06 09:03:31;;;;;;;3.08;2.78;;;24.50;99.90;;;;;;4987512;28;20056;-86
2023/09/06 09:06:06;;;;;;;5.32;3.10;;;24.50;99.90;;;;;;4998809;28;20038;-85
2023/09/06 09:08:33;;;;;;;5.57;2.90;;;24.70;99.90;;;;;;5017400;28;20056;-85
2023/09/06 09:11:15;;;;;;;2.40;2.20;;;24.70;99.90;;;;;;5000955;28;20065;-85
2023/09/06 09:13:42;;;;;;;3.88;2.63;;;24.80;99.90;;;;;;5017352;28;20046;-83
2023/09/06 09:16:13;;;;;;;5.45;2.63;;;24.90;99.90;;;;;;5018281;28;20099;-85
2023/09/06 09:18:41;;;;;;;4.30;3.03;;;25.00;99.90;;;;;;5015107;28;20099;-85
2023/09/06 09:21:09;;;;;;;19.63;4.72;;;25.10;99.90;;;;;;5001006;28;20136;-84
2023/09/06 09:23:50;;;;;;;3.13;2.83;;;25.10;99.90;;;;;;4981437;28;20382;-84
2023/09/06 09:26:19;;;;;;;3.83;3.03;;;25.20;99.90;;;;;;5000689;28;20057;-85
2023/09/06 09:28:45;;;;;;;3.90;3.22;;;25.20;99.90;;;;;;5017252;28;20052;-85
2023/09/06 09:31:15;;;;;;;4.43;3.08;;;25.30;99.90;;;;;;5016979;28;20120;-84
2023/09/06 09:33:44;;;;;;;4.00;2.85;;;25.40;99.90;;;;;;5016223;28;20050;-86
2023/09/06 09:36:13;;;;;;;4.03;3.00;;;25.40;99.90;;;;;;5000701;28;20413;-85
2023/09/06 09:38:49;;;;;;;3.95;3.00;;;25.50;99.90;;;;;;5001875;28;20133;-84
2023/09/06 09:41:15;;;;;;;5.63;2.85;;;25.70;99.90;;;;;;5003259;28;20056;-84
2023/09/06 09:43:41;;;;;;;2.58;2.38;;;25.70;99.90;;;;;;5023179;28;20120;-84
2023/09/06 09:46:08;;;;;;;2.90;2.42;;;25.90;99.90;;;;;;5004046;28;20129;-85
2023/09/06 09:48:35;;;;;;;4.40;2.97;;;26.00;99.90;;;;;;5006871;28;20120;-84
2023/09/06 09:51:04;;;;;;;4.38;2.65;;;26.00;99.90;;;;;;5005709;28;20045;-85
2023/09/06 09:53:32;;;;;;;5.18;2.75;;;26.20;99.90;;;;;;5020298;28;20075;-87
2023/09/06 09:56:04;;;;;;;4.00;2.65;;;26.20;99.90;;;;;;5003359;28;20060;-84
2023/09/06 09:58:34;;;;;;;3.05;2.58;;;26.30;99.90;;;;;;5007745;28;20053;-86
2023/09/06 10:01:01;;;;;;;3.40;2.58;;;26.40;99.90;;;;;;5021362;28;20698;-86
2023/09/06 10:03:28;;;;;;;4.22;2.70;;;26.40;99.90;;;;;;5019024;28;20068;-84
2023/09/06 10:05:54;;;;;;;5.07;3.10;;;26.50;99.90;;;;;;5004807;28;20096;-85
2023/09/06 10:08:21;;;;;;;3.47;2.70;;;26.60;99.90;;;;;;5001938;28;20052;-86
2023/09/06 10:10:47;;;;;;;5.18;2.63;;;26.60;99.90;;;;;;5004611;28;20037;-85
2023/09/06 10:13:16;;;;;;;3.40;2.70;;;26.70;99.90;;;;;;5002520;28;20405;-83
2023/09/06 10:15:43;;;;;;;4.00;3.15;;;26.80;99.90;;;;;;5020414;28;20558;-85
2023/09/06 10:18:09;;;;;;;22.60;4.25;;;26.90;99.90;;;;;;5002804;28;20507;-85
2023/09/06 10:20:37;;;;;;;6.38;2.72;;;26.90;99.90;;;;;;5021922;28;20049;-86
2023/09/06 10:23:06;;;;;;;3.20;2.70;;;27.00;99.90;;;;;;5006389;28;20037;-85
2023/09/06 10:25:32;;;;;;;3.60;2.63;;;27.10;99.90;;;;;;4997970;28;20042;-85
2023/09/06 10:28:00;;;;;;;4.82;2.50;;;27.20;99.90;;;;;;5027677;28;20042;-86
2023/09/06 10:30:34;;;;;;;3.10;2.13;;;27.30;99.90;;;;;;5029045;28;20437;-86
2023/09/06 10:33:02;;;;;;;2.70;2.50;;;27.30;99.90;;;;;;5029682;28;20048;-86
2023/09/06 10:35:31;;;;;;;16.38;4.18;;;27.40;99.90;;;;;;5032885;28;20140;-84
2023/09/06 10:38:14;;;;;;;2.92;2.60;;;27.50;99.90;;;;;;4996480;28;20049;-85
2023/09/06 10:40:53;;;;;;;3.55;2.60;;;27.60;99.90;;;;;;5009770;28;20762;-85
2023/09/06 10:43:28;;;;;;;2.80;2.60;;;27.70;99.90;;;;;;5013546;28;20691;-88
2023/09/06 10:45:54;;;;;;;2.72;2.38;;;27.70;99.90;;;;;;5011450;28;20133;-85
2023/09/06 10:48:21;;;;;;;3.78;2.08;;;27.70;99.90;;;;;;5029750;28;20121;-86
2023/09/06 10:51:07;;;;;;;2.75;2.20;;;27.80;99.90;;;;;;5022512;28;20049;-85
2023/09/06 10:53:37;;;;;;;2.85;2.20;;;27.90;99.90;;;;;;5010801;28;20038;-87
2023/09/06 10:56:05;;;;;;;3.60;2.20;;;28.00;99.90;;;;;;5031062;28;20045;-85
2023/09/06 10:58:33;;;;;;;2.85;2.17;;;28.00;99.90;;;;;;5016601;28;20049;-84
2023/09/06 11:01:12;;;;;;;5.50;2.72;;;28.00;99.90;;;;;;5027960;28;20145;-85
2023/09/06 11:03:38;;;;;;;4.90;2.50;;;28.10;97.40;;;;;;5011208;28;20044;-85
2023/09/06 11:06:04;;;;;;;4.20;2.50;;;28.00;98.60;;;;;;5026840;28;20048;-84
2023/09/06 11:08:33;;;;;;;4.05;3.42;;;28.00;99.90;;;;;;5016347;28;20036;-85
2023/09/06 11:11:05;;;;;;;3.63;2.65;;;28.10;99.90;;;;;;5013538;28;20116;-85
2023/09/06 11:13:33;;;;;;;4.25;3.40;;;28.20;99.90;;;;;;4991993;28;20157;-84
2023/09/06 11:16:00;;;;;;;4.20;2.30;;;28.20;99.90;;;;;;5013989;28;20040;-84
2023/09/06 11:18:27;;;;;;;3.30;2.90;;;28.20;99.90;;;;;;5012113;28;20049;-84
2023/09/06 11:20:53;;;;;;;3.47;2.30;;;28.30;99.90;;;;;;5012320;28;20041;-85
2023/09/06 11:23:18;;;;;;;4.53;3.63;;;28.30;99.90;;;;;;5008447;28;20038;-86
2023/09/06 11:25:45;;;;;;;3.67;2.70;;;28.40;99.90;;;;;;5031945;28;20147;-84
2023/09/06 11:28:18;;;;;;;3.13;2.47;;;28.50;99.90;;;;;;4993712;28;20045;-83
2023/09/06 11:30:47;;;;;;;3.45;2.60;;;28.50;99.90;;;;;;4999179;28;20037;-85
2023/09/06 11:33:17;;;;;;;2.40;2.20;;;28.60;99.90;;;;;;5021773;28;20402;-85
2023/09/06 11:35:51;;;;;;;3.53;2.58;;;28.70;99.90;;;;;;5015984;28;20076;-85
2023/09/06 11:38:23;;;;;;;4.05;2.72;;;28.70;99.90;;;;;;5012584;28;20045;-86
2023/09/06 11:40:50;;;;;;;4.05;2.70;;;28.80;99.90;;;;;;4990681;28;20046;-86
2023/09/06 11:43:19;;;;;;;2.45;2.25;;;28.80;99.90;;;;;;5011379;28;20044;-85
2023/09/06 11:45:48;;;;;;;3.85;2.40;;;28.90;99.90;;;;;;5012050;28;20041;-85
2023/09/06 11:48:19;;;;;;;3.25;2.60;;;28.90;99.90;;;;;;4994801;28;20040;-86
2023/09/06 11:50:47;;;;;;;3.08;2.15;;;28.90;98.60;;;;;;5018517;28;20516;-86
2023/09/06 11:53:14;;;;;;;4.13;2.58;;;29.00;99.90;;;;;;4995023;28;20048;-87
2023/09/06 11:55:45;;;;;;;2.33;2.13;;;29.10;99.90;;;;;;5029203;28;20040;-87
2023/09/06 11:58:16;;;;;;;3.42;2.33;;;29.20;99.90;;;;;;5010910;28;20050;-85
2023/09/06 12:00:48;;;;;;;4.97;2.53;;;29.20;99.90;;;;;;5014234;28;20050;-86
2023/09/06 12:03:17;;;;;;;;;;;29.20;99.90;;;;;;5010924;28;20045;-88
2023/09/06 12:05:47;;;;;;;4.38;2.70;;;29.20;99.90;;;;;;5028482;28;19917;-86
2023/09/06 12:08:15;;;;;;;3.58;2.63;;;29.30;99.90;;;;;;5023194;28;20480;-87
2023/09/06 12:10:49;;;;;;;2.63;2.40;;;29.30;99.90;;;;;;4995130;28;20049;-85
2023/09/06 12:13:28;;;;;;;2.85;2.35;;;29.40;99.90;;;;;;4998862;28;20053;-86
2023/09/06 12:15:56;;;;;;;2.42;2.20;;;29.50;99.90;;;;;;5024879;28;20045;-86
2023/09/06 12:18:24;;;;;;;4.55;2.40;;;29.60;99.90;;;;;;5014972;28;20049;-86
2023/09/06 12:20:50;;;;;;;3.15;2.22;;;29.60;99.90;;;;;;5028214;28;20038;-87
2023/09/06 12:23:20;;;;;;;2.92;2.20;;;29.60;99.90;;;;;;4997471;28;20092;-86
2023/09/06 12:25:45;;;;;;;6.20;2.20;;;29.60;98.30;;;;;;5014675;28;20080;-86
2023/09/06 12:28:13;;;;;;;3.05;2.10;;;29.60;99.90;;;;;;5013211;28;20037;-87
2023/09/06 12:30:38;;;;;;;2.90;2.00;;;29.70;99.90;;;;;;5014654;28;20040;-86
2023/09/06 12:33:05;;;;;;;3.60;2.15;;;29.70;96.20;;;;;;5002122;28;20045;-85
2023/09/06 12:35:37;;;;;;;4.07;2.28;;;29.70;96.70;;;;;;5004845;28;20405;-85
2023/09/06 12:38:03;;;;;;;2.47;2.00;;;29.70;98.10;;;;;;5028125;28;20041;-87
2023/09/06 12:40:30;;;;;;;2.22;2.13;;;29.70;97.80;;;;;;5021718;28;20134;-84
2023/09/06 12:42:57;;;;;;;2.83;2.15;;;29.70;97.90;;;;;;5026059;28;20041;-85
2023/09/06 12:45:31;;;;;;;2.95;2.08;;;29.70;93.30;;;;;;5028359;28;20107;-87
2023/09/06 12:48:00;;;;;;;3.22;2.20;;;29.70;92.10;;;;;;5022422;28;20033;-85
2023/09/06 12:50:26;;;;;;;3.13;2.17;;;29.80;92.90;;;;;;5030412;28;20397;-86